createdAt,value
2022-07-28T00:00:27.833Z,94.40
2022-07-28T00:03:00.339Z,94.50
2022-07-28T00:05:32.331Z,94.50
2022-07-28T00:08:06.355Z,94.60
2022-07-28T00:10:38.437Z,94.50
2022-07-28T00:13:10.476Z,94.50
2022-07-28T00:15:42.412Z,94.20
2022-07-28T00:18:14.406Z,94.40
2022-07-28T00:20:46.482Z,94.10
2022-07-28T00:23:18.399Z,93.90
2022-07-28T00:25:50.259Z,93.80
2022-07-28T00:28:22.230Z,93.40
2022-07-28T00:30:55.611Z,93.30
2022-07-28T00:33:27.822Z,93.20
2022-07-28T00:35:59.750Z,93.40
2022-07-28T00:38:31.718Z,93.30
2022-07-28T00:41:12.982Z,93.20
2022-07-28T00:43:50.121Z,93.20
2022-07-28T00:46:23.281Z,92.90
2022-07-28T00:48:56.025Z,92.70
2022-07-28T00:51:28.371Z,92.70
2022-07-28T00:54:00.373Z,92.90
2022-07-28T00:56:33.206Z,93.00
2022-07-28T00:59:05.153Z,92.60
2022-07-28T01:01:37.214Z,92.60
2022-07-28T01:04:09.330Z,92.80
2022-07-28T01:06:56.207Z,92.80
2022-07-28T01:10:03.290Z,92.90
2022-07-28T01:13:07.501Z,93.50
2022-07-28T01:15:46.270Z,94.40
2022-07-28T01:18:23.261Z,94.90
2022-07-28T01:21:08.117Z,95.30
2022-07-28T01:23:58.011Z,95.70
2022-07-28T01:26:54.741Z,96.00
2022-07-28T01:29:57.350Z,96.30
2022-07-28T01:32:35.036Z,96.00
2022-07-28T01:35:30.168Z,96.10
2022-07-28T01:38:05.494Z,96.30
2022-07-28T01:40:40.671Z,96.40
2022-07-28T01:43:17.410Z,96.90
2022-07-28T01:45:49.265Z,96.60
2022-07-28T01:48:23.620Z,96.50
2022-07-28T01:50:57.253Z,96.70
2022-07-28T01:53:31.392Z,96.80
2022-07-28T01:56:10.334Z,97.20
2022-07-28T01:58:43.433Z,97.20
2022-07-28T02:01:17.995Z,97.30
2022-07-28T02:03:51.244Z,97.50
2022-07-28T02:06:23.808Z,97.40
2022-07-28T02:08:57.984Z,97.40
2022-07-28T02:11:40.121Z,97.30
2022-07-28T02:14:18.920Z,97.20
2022-07-28T02:16:57.974Z,97.00
2022-07-28T02:19:31.891Z,97.00
2022-07-28T02:22:06.012Z,97.10
2022-07-28T02:24:39.296Z,97.30
2022-07-28T02:27:19.644Z,97.70
2022-07-28T02:30:01.920Z,97.80
2022-07-28T02:32:33.781Z,97.80
2022-07-28T02:35:15.220Z,97.40
2022-07-28T02:37:54.854Z,97.70
2022-07-28T02:40:33.484Z,97.60
2022-07-28T02:43:11.078Z,97.60
2022-07-28T02:45:47.091Z,98.00
2022-07-28T02:48:25.209Z,98.00
2022-07-28T02:51:01.041Z,98.00
2022-07-28T02:53:34.410Z,98.30
2022-07-28T02:56:07.426Z,98.20
2022-07-28T02:58:40.459Z,98.40
2022-07-28T03:01:13.531Z,98.40
2022-07-28T03:03:48.220Z,98.60
2022-07-28T03:06:25.393Z,98.50
2022-07-28T03:09:01.256Z,98.70
2022-07-28T03:11:34.229Z,98.70
2022-07-28T03:14:06.288Z,98.80
2022-07-28T03:16:38.231Z,98.60
2022-07-28T03:19:10.403Z,98.80
2022-07-28T03:21:42.525Z,98.80
2022-07-28T03:24:16.134Z,98.90
2022-07-28T03:26:58.048Z,98.50
2022-07-28T03:29:32.733Z,98.40
2022-07-28T03:32:05.291Z,98.50
2022-07-28T03:34:37.477Z,98.70
2022-07-28T03:37:13.014Z,98.90
2022-07-28T03:39:48.076Z,98.60
2022-07-28T03:42:21.273Z,98.70
2022-07-28T03:44:54.072Z,98.60
2022-07-28T03:47:25.971Z,98.70
2022-07-28T03:49:57.887Z,98.80
2022-07-28T03:52:29.823Z,98.70
2022-07-28T03:55:01.787Z,98.70
2022-07-28T03:57:33.724Z,98.60
2022-07-28T04:00:09.652Z,98.70
2022-07-28T04:02:45.169Z,98.70
2022-07-28T04:05:18.715Z,98.80
2022-07-28T04:07:50.620Z,98.80
2022-07-28T04:10:22.539Z,98.80
2022-07-28T04:12:56.686Z,98.60
2022-07-28T04:15:29.826Z,98.80
2022-07-28T04:18:01.762Z,98.80
2022-07-28T04:20:34.127Z,98.80
2022-07-28T04:23:06.136Z,98.60
2022-07-28T04:25:38.108Z,98.30
2022-07-28T04:28:12.131Z,98.30
2022-07-28T04:30:44.890Z,98.30
2022-07-28T04:33:19.475Z,98.20
2022-07-28T04:35:52.849Z,97.70
2022-07-28T04:38:24.825Z,98.00
2022-07-28T04:40:57.565Z,97.80
2022-07-28T04:43:29.600Z,97.50
2022-07-28T04:46:01.585Z,96.90
2022-07-28T04:48:33.568Z,96.20
2022-07-28T04:51:05.519Z,96.10
2022-07-28T04:53:37.480Z,95.40
2022-07-28T04:56:09.528Z,95.10
2022-07-28T04:58:41.492Z,94.40
2022-07-28T05:01:15.058Z,93.50
2022-07-28T05:03:47.232Z,93.00
2022-07-28T05:06:19.223Z,92.30
2022-07-28T05:08:51.205Z,92.00
2022-07-28T05:11:23.241Z,92.00
2022-07-28T05:13:55.084Z,91.90
2022-07-28T05:16:27.073Z,92.20
2022-07-28T05:18:59.111Z,92.00
2022-07-28T05:21:31.029Z,91.70
2022-07-28T05:24:03.153Z,91.10
2022-07-28T05:26:35.125Z,91.10
2022-07-28T05:29:07.049Z,91.20
2022-07-28T05:31:39.254Z,90.80
2022-07-28T05:34:11.418Z,90.90
2022-07-28T05:36:44.434Z,90.40
2022-07-28T05:39:16.352Z,90.50
2022-07-28T05:41:48.268Z,90.10
2022-07-28T05:44:20.206Z,89.90
2022-07-28T05:46:52.282Z,89.90
2022-07-28T05:49:24.401Z,89.20
2022-07-28T05:51:56.424Z,88.50
2022-07-28T05:54:28.355Z,88.10
2022-07-28T05:57:00.281Z,87.10
2022-07-28T05:59:32.236Z,85.40
2022-07-28T06:02:04.520Z,85.40
2022-07-28T06:04:37.121Z,84.80
2022-07-28T06:07:09.259Z,84.70
2022-07-28T06:09:45.107Z,83.50
2022-07-28T06:12:17.205Z,83.60
2022-07-28T06:14:49.357Z,82.70
2022-07-28T06:17:21.260Z,83.00
2022-07-28T06:19:53.130Z,83.00
2022-07-28T06:22:25.013Z,83.00
2022-07-28T06:24:57.016Z,84.00
2022-07-28T06:27:28.963Z,85.50
2022-07-28T06:30:00.832Z,85.80
2022-07-28T06:32:32.697Z,84.60
2022-07-28T06:35:05.792Z,83.50
2022-07-28T06:37:37.668Z,83.60
2022-07-28T06:40:11.914Z,82.60
2022-07-28T06:42:44.865Z,83.40
2022-07-28T06:45:19.834Z,83.60
2022-07-28T06:47:53.923Z,83.90
2022-07-28T06:50:27.108Z,83.00
2022-07-28T06:52:59.485Z,82.70
2022-07-28T06:55:35.224Z,83.10
2022-07-28T06:58:07.973Z,83.40
2022-07-28T07:00:40.069Z,82.90
2022-07-28T07:03:12.022Z,82.60
2022-07-28T07:05:44.004Z,82.70
2022-07-28T07:08:15.972Z,83.20
2022-07-28T07:10:47.909Z,82.10
2022-07-28T07:13:19.875Z,82.30
2022-07-28T07:15:51.868Z,81.40
2022-07-28T07:18:23.847Z,80.70
2022-07-28T07:20:57.779Z,81.70
2022-07-28T07:23:29.614Z,80.90
2022-07-28T07:26:02.557Z,79.70
2022-07-28T07:28:34.804Z,80.00
2022-07-28T07:31:06.693Z,79.50
2022-07-28T07:33:38.603Z,79.60
2022-07-28T07:36:10.608Z,78.90
2022-07-28T07:38:42.644Z,79.90
2022-07-28T07:41:14.647Z,80.30
2022-07-28T07:43:47.811Z,78.60
2022-07-28T07:46:19.923Z,79.00
2022-07-28T07:48:51.933Z,78.40
2022-07-28T07:51:23.851Z,78.50
2022-07-28T07:53:55.750Z,77.00
2022-07-28T07:56:27.731Z,77.10
2022-07-28T07:58:59.676Z,76.80
2022-07-28T08:01:31.646Z,77.20
2022-07-28T08:04:03.758Z,75.70
2022-07-28T08:06:35.893Z,76.10
2022-07-28T08:09:07.869Z,74.50
2022-07-28T08:11:39.787Z,74.50
2022-07-28T08:14:11.882Z,74.70
2022-07-28T08:16:44.114Z,74.20
2022-07-28T08:19:16.148Z,74.00
2022-07-28T08:21:53.750Z,74.80
2022-07-28T08:24:33.106Z,74.90
2022-07-28T08:27:06.086Z,74.30
2022-07-28T08:29:38.003Z,74.20
2022-07-28T08:32:09.945Z,73.90
2022-07-28T08:34:41.897Z,72.20
2022-07-28T08:37:13.869Z,73.60
2022-07-28T08:39:45.875Z,73.50
2022-07-28T08:43:04.447Z,73.80
2022-07-28T08:45:39.300Z,73.10
2022-07-28T08:48:12.288Z,72.90
2022-07-28T08:50:46.189Z,72.30
2022-07-28T08:53:20.835Z,72.80
2022-07-28T08:55:53.267Z,72.20
2022-07-28T08:58:25.557Z,72.50
2022-07-28T09:00:57.936Z,72.90
2022-07-28T09:03:30.209Z,73.30
2022-07-28T09:06:02.461Z,73.50
2022-07-28T09:08:34.725Z,72.40
2022-07-28T09:11:08.167Z,72.10
2022-07-28T09:13:40.155Z,73.10
2022-07-28T09:16:15.343Z,72.80
2022-07-28T09:18:47.365Z,72.20
2022-07-28T09:21:19.615Z,71.60
2022-07-28T09:23:51.578Z,72.20
2022-07-28T09:26:23.463Z,71.40
2022-07-28T09:28:57.603Z,71.70
2022-07-28T09:31:30.681Z,72.10
2022-07-28T09:34:04.563Z,70.90
2022-07-28T09:36:41.134Z,71.20
2022-07-28T09:39:35.126Z,71.00
2022-07-28T09:42:07.157Z,71.10
2022-07-28T09:44:39.363Z,69.90
2022-07-28T09:47:30.911Z,69.90
2022-07-28T09:50:03.205Z,70.50
2022-07-28T09:52:37.629Z,70.30
2022-07-28T09:55:11.773Z,69.90
2022-07-28T09:57:45.894Z,69.70
2022-07-28T10:00:28.491Z,68.50
2022-07-28T10:03:00.748Z,69.00
2022-07-28T10:05:41.791Z,68.80
2022-07-28T10:08:13.695Z,68.60
2022-07-28T10:10:59.325Z,69.70
2022-07-28T10:13:31.227Z,69.00
2022-07-28T10:16:10.566Z,69.30
2022-07-28T10:18:42.567Z,69.50
2022-07-28T10:21:18.046Z,69.20
2022-07-28T10:23:52.934Z,69.20
2022-07-28T10:26:39.112Z,68.10
2022-07-28T10:29:15.766Z,69.00
2022-07-28T10:31:55.120Z,69.10
2022-07-28T10:34:51.177Z,69.40
2022-07-28T10:37:25.682Z,69.50
2022-07-28T10:40:07.856Z,69.40
2022-07-28T10:42:42.227Z,69.50
2022-07-28T10:45:15.490Z,69.10
2022-07-28T10:47:48.575Z,68.90
2022-07-28T10:50:21.244Z,67.60
2022-07-28T10:52:58.951Z,68.70
2022-07-28T10:55:46.564Z,68.80
2022-07-28T10:58:38.626Z,69.30
2022-07-28T11:01:48.469Z,69.40
2022-07-28T11:04:51.688Z,69.50
2022-07-28T11:07:23.707Z,68.60
2022-07-28T11:10:15.907Z,66.90
2022-07-28T11:12:53.010Z,68.80
2022-07-28T11:15:35.045Z,68.40
2022-07-28T11:18:09.326Z,68.20
2022-07-28T11:20:53.377Z,67.70
2022-07-28T11:23:47.825Z,68.30
2022-07-28T11:26:20.709Z,68.40
2022-07-28T11:29:03.433Z,67.90
2022-07-28T11:31:44.650Z,67.30
2022-07-28T11:34:22.469Z,67.80
2022-07-28T11:37:02.961Z,67.20
2022-07-28T11:39:43.399Z,66.00
2022-07-28T11:42:29.527Z,67.10
2022-07-28T11:45:23.761Z,67.20
2022-07-28T11:48:25.348Z,68.10
2022-07-28T11:51:03.236Z,66.60
2022-07-28T11:53:41.009Z,66.30
2022-07-28T11:56:24.025Z,65.70
2022-07-28T11:59:07.059Z,65.80
2022-07-28T12:01:52.208Z,66.40
2022-07-28T12:04:27.038Z,66.60
2022-07-28T12:06:59.867Z,66.90
2022-07-28T12:09:41.575Z,67.50
2022-07-28T12:12:14.247Z,68.60
2022-07-28T12:14:46.468Z,66.80
2022-07-28T12:17:18.443Z,68.00
2022-07-28T12:19:50.406Z,66.90
2022-07-28T12:22:22.294Z,67.60
2022-07-28T12:24:58.188Z,66.20
2022-07-28T12:27:31.851Z,66.70
2022-07-28T12:30:04.632Z,66.40
2022-07-28T12:32:36.552Z,65.70
2022-07-28T12:35:09.483Z,66.70
2022-07-28T12:37:44.068Z,67.30
2022-07-28T12:40:18.566Z,67.10
2022-07-28T12:42:59.288Z,66.80
2022-07-28T12:45:33.275Z,67.30
2022-07-28T12:48:08.738Z,66.50
2022-07-28T12:50:41.096Z,66.50
2022-07-28T12:53:13.957Z,67.20
2022-07-28T12:55:45.971Z,66.90
2022-07-28T12:58:29.940Z,66.40
2022-07-28T13:01:02.376Z,66.30
2022-07-28T13:03:35.021Z,67.50
2022-07-28T13:06:11.799Z,66.10
2022-07-28T13:08:46.117Z,65.40
2022-07-28T13:11:42.867Z,65.70
2022-07-28T13:14:09.981Z,66.40
2022-07-28T13:16:42.009Z,65.80
2022-07-28T13:19:21.606Z,66.40
2022-07-28T13:22:01.763Z,67.00
2022-07-28T13:24:36.226Z,66.80
2022-07-28T13:27:08.928Z,66.30
2022-07-28T13:29:40.851Z,65.60
2022-07-28T13:32:12.875Z,65.20
2022-07-28T13:34:45.005Z,64.70
2022-07-28T13:37:17.140Z,65.40
2022-07-28T13:39:54.551Z,65.50
2022-07-28T13:42:26.765Z,66.70
2022-07-28T13:44:58.653Z,67.20
2022-07-28T13:47:35.675Z,68.10
2022-07-28T13:50:11.286Z,67.90
2022-07-28T13:52:44.031Z,68.10
2022-07-28T13:55:19.565Z,67.70
2022-07-28T13:57:52.821Z,68.80
2022-07-28T14:00:27.850Z,70.10
2022-07-28T14:03:01.515Z,70.30
2022-07-28T14:05:33.713Z,70.10
2022-07-28T14:08:06.582Z,71.00
2022-07-28T14:10:38.929Z,70.90
2022-07-28T14:13:10.875Z,71.00
2022-07-28T14:15:42.814Z,70.90
2022-07-28T14:18:14.730Z,72.40
2022-07-28T14:20:46.720Z,72.80
2022-07-28T14:23:18.657Z,72.40
2022-07-28T14:25:51.025Z,72.30
2022-07-28T14:28:23.471Z,72.30
2022-07-28T14:30:55.545Z,72.70
2022-07-28T14:33:29.397Z,73.00
2022-07-28T14:36:01.336Z,72.50
2022-07-28T14:38:52.522Z,73.20
2022-07-28T14:41:26.145Z,73.30
2022-07-28T14:43:59.103Z,73.40
2022-07-28T14:46:31.071Z,73.30
2022-07-28T14:49:03.111Z,73.10
2022-07-28T14:51:39.404Z,73.70
2022-07-28T14:54:15.408Z,73.40
2022-07-28T14:56:47.748Z,74.00
2022-07-28T14:59:19.726Z,73.40
2022-07-28T15:01:51.947Z,74.00
2022-07-28T15:04:25.474Z,73.80
2022-07-28T15:06:57.474Z,74.10
2022-07-28T15:09:29.583Z,74.20
2022-07-28T15:12:01.535Z,73.70
2022-07-28T15:14:33.429Z,74.50
2022-07-28T15:17:05.353Z,75.50
2022-07-28T15:19:38.931Z,75.00
2022-07-28T15:22:10.886Z,75.30
2022-07-28T15:24:45.652Z,75.30
2022-07-28T15:27:17.892Z,75.40
2022-07-28T15:29:52.052Z,75.00
2022-07-28T15:32:28.393Z,76.00
2022-07-28T15:35:00.569Z,75.90
2022-07-28T15:37:32.501Z,75.80
2022-07-28T15:40:04.873Z,75.20
2022-07-28T15:42:36.850Z,74.60
2022-07-28T15:45:10.689Z,76.30
2022-07-28T15:47:42.733Z,76.80
2022-07-28T15:50:14.705Z,76.30
2022-07-28T15:52:46.678Z,76.00
2022-07-28T15:55:20.310Z,75.60
2022-07-28T15:57:52.273Z,75.30
2022-07-28T16:00:24.171Z,75.00
2022-07-28T16:02:58.186Z,74.70
2022-07-28T16:05:30.155Z,75.10
2022-07-28T16:08:03.656Z,75.50
2022-07-28T16:10:35.879Z,76.10
2022-07-28T16:13:07.804Z,76.40
2022-07-28T16:15:40.373Z,76.40
2022-07-28T16:18:12.337Z,75.90
2022-07-28T16:20:45.244Z,76.40
2022-07-28T16:23:17.655Z,76.60
2022-07-28T16:25:49.576Z,76.30
2022-07-28T16:28:21.743Z,76.00
2022-07-28T16:30:53.988Z,75.40
2022-07-28T16:33:26.035Z,76.00
2022-07-28T16:35:57.900Z,76.10
2022-07-28T16:38:30.272Z,76.90
2022-07-28T16:41:02.188Z,77.20
2022-07-28T16:43:34.119Z,77.60
2022-07-28T16:46:06.063Z,77.70
2022-07-28T16:48:38.187Z,77.90
2022-07-28T16:51:11.625Z,78.00
2022-07-28T16:53:43.678Z,77.50
2022-07-28T16:56:18.067Z,78.00
2022-07-28T16:58:49.959Z,77.80
2022-07-28T17:01:22.123Z,77.80
2022-07-28T17:03:54.093Z,78.40
2022-07-28T17:06:26.038Z,78.00
2022-07-28T17:08:58.140Z,77.30
2022-07-28T17:11:30.116Z,78.10
2022-07-28T17:14:01.996Z,78.20
2022-07-28T17:16:34.222Z,77.10
2022-07-28T17:19:06.131Z,78.10
2022-07-28T17:21:38.128Z,78.20
2022-07-28T17:24:12.103Z,78.50
2022-07-28T17:27:35.214Z,78.80
2022-07-28T17:29:37.149Z,78.70
2022-07-28T17:32:09.523Z,79.20
2022-07-28T17:34:41.693Z,78.60
2022-07-28T17:37:14.851Z,77.70
2022-07-28T17:39:46.708Z,77.60
2022-07-28T17:42:18.800Z,77.80
2022-07-28T17:44:52.956Z,76.90
2022-07-28T17:47:35.917Z,77.30
2022-07-28T17:50:12.999Z,77.00
2022-07-28T17:52:45.699Z,76.90
2022-07-28T17:55:54.038Z,75.90
2022-07-28T17:58:29.522Z,75.40
2022-07-28T18:01:09.930Z,75.80
2022-07-28T18:03:56.644Z,76.20
2022-07-28T18:06:35.251Z,76.30
2022-07-28T18:09:10.572Z,76.40
2022-07-28T18:11:57.739Z,76.90
2022-07-28T18:14:31.181Z,77.30
2022-07-28T18:17:03.219Z,77.70
2022-07-28T18:19:35.133Z,78.00
2022-07-28T18:22:07.213Z,78.20
2022-07-28T18:24:39.190Z,78.50
2022-07-28T18:27:11.097Z,79.00
2022-07-28T18:29:42.993Z,79.70
2022-07-28T18:32:15.688Z,80.80
2022-07-28T18:34:47.642Z,81.30
2022-07-28T18:37:19.520Z,81.40
2022-07-28T18:39:51.427Z,81.40
2022-07-28T18:42:23.296Z,81.70
2022-07-28T18:44:55.177Z,82.10
2022-07-28T18:47:29.019Z,82.10
2022-07-28T18:50:01.003Z,82.10
2022-07-28T18:52:35.525Z,81.90
2022-07-28T18:55:08.764Z,82.20
2022-07-28T18:57:43.657Z,82.30
2022-07-28T19:00:15.775Z,82.20
2022-07-28T19:02:47.727Z,82.30
2022-07-28T19:05:19.822Z,82.30
2022-07-28T19:07:52.000Z,82.70
2022-07-28T19:10:24.419Z,82.80
2022-07-28T19:12:56.320Z,83.10
2022-07-28T19:15:28.208Z,83.60
2022-07-28T19:18:11.329Z,83.90
2022-07-28T19:20:47.032Z,84.20
2022-07-28T19:23:19.553Z,84.80
2022-07-28T19:25:51.687Z,85.00
2022-07-28T19:28:24.492Z,84.90
2022-07-28T19:30:58.535Z,84.80
2022-07-28T19:33:31.400Z,84.80
2022-07-28T19:36:06.439Z,84.90
2022-07-28T19:38:38.324Z,84.90
2022-07-28T19:41:12.875Z,84.90
2022-07-28T19:43:44.876Z,85.20
2022-07-28T19:46:18.897Z,85.50
2022-07-28T19:48:50.983Z,85.50
2022-07-28T19:51:23.178Z,85.40
2022-07-28T19:53:57.726Z,85.50
2022-07-28T19:56:31.843Z,85.40
2022-07-28T19:59:03.837Z,85.40
2022-07-28T20:01:35.863Z,85.20
2022-07-28T20:04:07.899Z,85.50
2022-07-28T20:06:39.808Z,85.90
2022-07-28T20:09:12.639Z,86.10
2022-07-28T20:11:44.555Z,86.40
2022-07-28T20:14:17.398Z,86.90
2022-07-28T20:16:49.624Z,87.30
2022-07-28T20:19:22.151Z,88.10
2022-07-28T20:21:54.166Z,87.90
2022-07-28T20:24:26.101Z,87.90
2022-07-28T20:26:58.250Z,88.10
2022-07-28T20:29:30.274Z,88.60
2022-07-28T20:32:02.428Z,89.00
2022-07-28T20:34:38.923Z,88.80
2022-07-28T20:37:31.404Z,89.50
2022-07-28T20:40:04.021Z,89.70
2022-07-28T20:42:36.732Z,89.60
2022-07-28T20:45:09.003Z,90.10
2022-07-28T20:47:41.041Z,90.20
2022-07-28T20:50:14.626Z,90.10
2022-07-28T20:52:47.579Z,90.20
2022-07-28T20:55:20.701Z,90.30
2022-07-28T20:57:55.805Z,90.30
2022-07-28T21:00:28.757Z,90.50
2022-07-28T21:03:00.694Z,90.60
2022-07-28T21:05:34.940Z,90.80
2022-07-28T21:08:09.032Z,91.10
2022-07-28T21:10:41.571Z,91.20
2022-07-28T21:13:13.646Z,91.30
2022-07-28T21:15:45.524Z,91.50
2022-07-28T21:18:18.081Z,91.40
2022-07-28T21:20:50.596Z,91.60
2022-07-28T21:23:22.560Z,91.70
2022-07-28T21:25:54.843Z,91.80
2022-07-28T21:28:45.477Z,91.80
2022-07-28T21:31:17.652Z,91.80
2022-07-28T21:33:50.201Z,91.60
2022-07-28T21:36:22.702Z,91.70
2022-07-28T21:38:54.530Z,91.70
2022-07-28T21:41:26.638Z,92.10
2022-07-28T21:44:08.469Z,92.30
2022-07-28T21:46:42.511Z,92.20
2022-07-28T21:49:14.501Z,91.90
2022-07-28T21:51:46.823Z,92.00
2022-07-28T21:54:19.840Z,92.40
2022-07-28T21:56:51.758Z,92.30
2022-07-28T21:59:23.704Z,92.40
2022-07-28T22:01:55.634Z,92.20
2022-07-28T22:04:27.670Z,92.20
2022-07-28T22:06:59.537Z,92.50
2022-07-28T22:09:34.934Z,92.60
2022-07-28T22:12:10.139Z,92.60
2022-07-28T22:14:42.022Z,92.80
2022-07-28T22:17:13.985Z,91.60
2022-07-28T22:19:45.920Z,88.90
2022-07-28T22:22:18.519Z,88.80
2022-07-28T22:24:50.629Z,89.30
2022-07-28T22:27:22.640Z,90.70
2022-07-28T22:29:54.726Z,91.80
2022-07-28T22:32:29.356Z,92.70
2022-07-28T22:35:01.652Z,93.70
2022-07-28T22:37:33.532Z,95.40
2022-07-28T22:40:06.249Z,97.70
2022-07-28T22:42:38.424Z,97.70
2022-07-28T22:45:11.219Z,98.10
2022-07-28T22:47:43.195Z,98.50
2022-07-28T22:50:15.696Z,98.10
2022-07-28T22:52:48.216Z,98.10
2022-07-28T22:58:09.436Z,99.00
2022-07-28T23:00:41.421Z,99.90
2022-07-28T23:03:15.782Z,99.90
2022-07-28T23:05:47.978Z,99.90
2022-07-28T23:08:22.736Z,99.90
2022-07-28T23:10:55.076Z,99.90
2022-07-28T23:13:27.105Z,99.90
2022-07-28T23:15:59.119Z,99.90
2022-07-28T23:18:31.142Z,99.90
2022-07-28T23:21:04.495Z,99.90
2022-07-28T23:23:37.008Z,99.90
2022-07-28T23:26:09.223Z,99.90
2022-07-28T23:28:41.160Z,99.90
2022-07-28T23:31:13.230Z,99.90
2022-07-28T23:33:55.979Z,99.90
2022-07-28T23:36:29.682Z,99.90
2022-07-28T23:39:01.628Z,99.90
2022-07-28T23:41:33.572Z,99.90
2022-07-28T23:44:05.529Z,99.90
2022-07-28T23:46:37.485Z,99.90
2022-07-28T23:49:10.330Z,99.90
2022-07-28T23:51:48.057Z,99.90
2022-07-28T23:54:20.766Z,99.90
2022-07-28T23:56:56.539Z,99.90
2022-07-28T23:59:28.533Z,99.90
